Карточка аэропорта UOOO

Внимание!
Информация на этой странице в стадии наполнения.
Если вы не увидели какой-то информации, или заметили неточность - пожалуйста сообщите нам!
Спасибо!
Команда RU-STAFF
Название аэропортаАлыкель
Название аэропорта (англ.)Alykel
Превышение574 ft. (175 m.)
Координаты69°19.02', 87°19.02'
Высота перехода1200m
Эшелон переходаQFE>744:FL60;744>QFE>717:FL70;717>QFE:FL80
Коды ответчика5401-5427
Зона ОрВДКрасноярск РПИ (UNKL)
Данные METARUOOO 270900Z 19013MPS 0800 0250SE R19/1000U -SN BLSN OVC013 M10/M11 Q1016 R19/810333 NOSIG RMK QFE745/0994
Проноз погоды (TAF)UOOO 270755Z 2709/2809 19012G20MPS 1000 -SN BLSN OVC011 TEMPO 2709/2715 0400 SN BLSN OVC006 BECMG 2715/2718 1500 -SN BLSN BKN016 TEMPO 2718/2804 2700 -SN BLSN BKN011 BECMG 2804/2808 18007G17MPS 6000 -SN BLSN
NOTAMshow/hide NOTAM
AWOS   TABLE

Информация о ВПП

ВПП Длина ВПП (м.) Покрытие Курс ВПП Частота ILS
013430Бетон13109.5
193430Бетон193110.3

Диспетчерские позиции

Позывной Наименование органа УВД Частота
UOOO_GNDНорильск - Руление121.700
UOOO_R_APPНорильск - Круг120.400
UOOO_TWRНорильск - Старт118.300



Спутниковое изображение